createdAt,value
2023-05-09T00:00:15.283Z,95525.00
2023-05-09T00:01:15.396Z,95523.00
2023-05-09T00:02:15.461Z,95523.00
2023-05-09T00:03:15.507Z,95525.00
2023-05-09T00:04:15.654Z,95525.00
2023-05-09T00:05:15.821Z,95523.00
2023-05-09T00:06:15.702Z,95521.00
2023-05-09T00:07:15.741Z,95521.00
2023-05-09T00:08:15.804Z,95517.00
2023-05-09T00:09:15.837Z,95519.00
2023-05-09T00:10:15.907Z,95517.00
2023-05-09T00:11:15.989Z,95519.00
2023-05-09T00:12:16.091Z,95517.00
2023-05-09T00:13:16.179Z,95515.00
2023-05-09T00:14:16.201Z,95507.00
2023-05-09T00:15:16.389Z,95507.00
2023-05-09T00:16:16.382Z,95503.00
2023-05-09T00:17:16.390Z,95501.00
2023-05-09T00:18:16.423Z,95503.00
2023-05-09T00:19:16.481Z,95499.00
2023-05-09T00:20:16.687Z,95501.00
2023-05-09T00:21:16.647Z,95501.00
2023-05-09T00:22:16.709Z,95501.00
2023-05-09T00:23:16.761Z,95503.00
2023-05-09T00:24:16.836Z,95503.00
2023-05-09T00:25:17.226Z,95503.00
2023-05-09T00:26:16.949Z,95501.00
2023-05-09T00:27:16.990Z,95503.00
2023-05-09T00:28:17.080Z,95501.00
2023-05-09T00:29:17.131Z,95505.00
2023-05-09T00:30:17.177Z,95503.00
2023-05-09T00:31:17.283Z,95501.00
2023-05-09T00:32:17.420Z,95497.00
2023-05-09T00:33:17.393Z,95497.00
2023-05-09T00:34:17.426Z,95497.00
2023-05-09T00:35:17.574Z,95497.00
2023-05-09T00:36:17.665Z,95497.00
2023-05-09T00:37:17.630Z,95499.00
2023-05-09T00:38:17.693Z,95495.00
2023-05-09T00:39:17.765Z,95495.00
2023-05-09T00:40:17.844Z,95497.00
2023-05-09T00:41:17.885Z,95495.00
2023-05-09T00:42:17.955Z,95494.00
2023-05-09T00:43:18.011Z,95492.00
2023-05-09T00:44:18.071Z,95490.00
2023-05-09T00:45:18.177Z,95490.00
2023-05-09T00:46:18.247Z,95492.00
2023-05-09T00:47:18.283Z,95490.00
2023-05-09T00:48:18.312Z,95488.00
2023-05-09T00:49:18.345Z,95484.00
2023-05-09T00:50:18.381Z,95484.00
2023-05-09T00:51:18.499Z,95480.00
2023-05-09T00:52:18.672Z,95480.00
2023-05-09T00:53:18.621Z,95482.00
2023-05-09T00:54:18.670Z,95478.00
2023-05-09T00:55:18.725Z,95478.00
2023-05-09T00:56:18.782Z,95476.00
2023-05-09T00:57:18.836Z,95478.00
2023-05-09T00:58:18.920Z,95476.00
2023-05-09T00:59:18.967Z,95478.00
2023-05-09T01:00:19.029Z,95476.00
2023-05-09T01:01:19.176Z,95476.00
2023-05-09T01:02:19.226Z,95478.00
2023-05-09T01:03:19.320Z,95478.00
2023-05-09T01:04:19.278Z,95474.00
2023-05-09T01:05:19.374Z,95474.00
2023-05-09T01:06:19.454Z,95470.00
2023-05-09T01:07:19.491Z,95472.00
2023-05-09T01:08:19.660Z,95468.00
2023-05-09T01:09:19.649Z,95472.00
2023-05-09T01:10:19.667Z,95468.00
2023-05-09T01:11:19.762Z,95464.00
2023-05-09T01:12:19.814Z,95464.00
2023-05-09T01:13:20.020Z,95462.00
2023-05-09T01:14:19.905Z,95464.00
2023-05-09T01:15:19.997Z,95462.00
2023-05-09T01:16:20.064Z,95462.00
2023-05-09T01:17:20.089Z,95464.00
2023-05-09T01:18:20.148Z,95464.00
2023-05-09T01:19:20.203Z,95464.00
2023-05-09T01:20:20.225Z,95462.00
2023-05-09T01:21:20.313Z,95460.00
2023-05-09T01:22:20.374Z,95460.00
2023-05-09T01:23:20.464Z,95458.00
2023-05-09T01:24:20.602Z,95456.00
2023-05-09T01:25:20.553Z,95456.00
2023-05-09T01:26:20.688Z,95456.00
2023-05-09T01:27:20.734Z,95456.00
2023-05-09T01:28:20.747Z,95456.00
2023-05-09T01:29:20.806Z,95454.00
2023-05-09T01:30:20.852Z,95456.00
2023-05-09T01:31:20.930Z,95456.00
2023-05-09T01:32:20.957Z,95456.00
2023-05-09T01:33:21.016Z,95456.00
2023-05-09T01:34:21.083Z,95458.00
2023-05-09T01:35:21.126Z,95458.00
2023-05-09T01:36:21.186Z,95462.00
2023-05-09T01:37:21.227Z,95460.00
2023-05-09T01:38:21.269Z,95456.00
2023-05-09T01:39:21.333Z,95456.00
2023-05-09T01:40:21.494Z,95458.00
2023-05-09T01:41:21.635Z,95456.00
2023-05-09T01:42:21.482Z,95456.00
2023-05-09T01:43:21.549Z,95452.00
2023-05-09T01:44:21.602Z,95452.00
2023-05-09T01:45:21.681Z,95456.00
2023-05-09T01:46:22.164Z,95454.00
2023-05-09T01:47:21.719Z,95454.00
2023-05-09T01:48:21.800Z,95456.00
2023-05-09T01:49:21.836Z,95454.00
2023-05-09T01:50:21.893Z,95454.00
2023-05-09T01:51:21.996Z,95454.00
2023-05-09T01:52:21.991Z,95452.00
2023-05-09T01:53:22.048Z,95452.00
2023-05-09T01:54:22.061Z,95452.00
2023-05-09T01:55:22.137Z,95452.00
2023-05-09T01:56:22.272Z,95452.00
2023-05-09T01:57:22.230Z,95452.00
2023-05-09T01:58:22.301Z,95454.00
2023-05-09T01:59:22.349Z,95452.00
2023-05-09T02:00:22.414Z,95454.00
2023-05-09T02:01:22.501Z,95452.00
2023-05-09T02:02:22.680Z,95452.00
2023-05-09T02:03:22.577Z,95450.00
2023-05-09T02:04:22.614Z,95448.00
2023-05-09T02:05:22.630Z,95445.00
2023-05-09T02:06:22.690Z,95448.00
2023-05-09T02:07:22.705Z,95448.00
2023-05-09T02:08:22.763Z,95445.00
2023-05-09T02:09:22.793Z,95447.00
2023-05-09T02:10:22.846Z,95445.00
2023-05-09T02:11:22.888Z,95447.00
2023-05-09T02:12:23.008Z,95448.00
2023-05-09T02:13:23.104Z,95447.00
2023-05-09T02:14:23.011Z,95447.00
2023-05-09T02:15:23.087Z,95445.00
2023-05-09T02:16:23.180Z,95445.00
2023-05-09T02:17:23.326Z,95443.00
2023-05-09T02:18:23.184Z,95441.00
2023-05-09T02:19:23.206Z,95439.00
2023-05-09T02:20:23.246Z,95439.00
2023-05-09T02:21:23.302Z,95441.00
2023-05-09T02:22:23.328Z,95439.00
2023-05-09T02:23:23.336Z,95441.00
2023-05-09T02:24:23.392Z,95441.00
2023-05-09T02:25:23.448Z,95439.00
2023-05-09T02:26:23.441Z,95439.00
2023-05-09T02:27:23.485Z,95437.00
2023-05-09T02:28:23.616Z,95437.00
2023-05-09T02:29:23.557Z,95435.00
2023-05-09T02:30:23.596Z,95435.00
2023-05-09T02:31:23.602Z,95433.00
2023-05-09T02:32:23.649Z,95431.00
2023-05-09T02:33:23.661Z,95431.00
2023-05-09T02:34:23.654Z,95431.00
2023-05-09T02:35:23.690Z,95429.00
2023-05-09T02:36:23.746Z,95427.00
2023-05-09T02:37:23.758Z,95429.00
2023-05-09T02:38:23.797Z,95427.00
2023-05-09T02:39:23.750Z,95425.00
2023-05-09T02:40:23.755Z,95429.00
2023-05-09T02:41:23.763Z,95427.00
2023-05-09T02:42:23.768Z,95427.00
2023-05-09T02:43:23.786Z,95431.00
2023-05-09T02:44:23.849Z,95431.00
2023-05-09T02:45:23.741Z,95431.00
2023-05-09T02:46:23.800Z,95429.00
2023-05-09T02:47:23.795Z,95429.00
2023-05-09T02:48:23.767Z,95427.00
2023-05-09T02:49:32.007Z,95427.00
2023-05-09T02:50:24.750Z,95425.00
2023-05-09T02:51:23.732Z,95417.00
2023-05-09T02:52:23.756Z,95415.00
2023-05-09T02:53:23.746Z,95415.00
2023-05-09T02:54:23.727Z,95415.00
2023-05-09T02:55:23.717Z,95417.00
2023-05-09T02:56:23.692Z,95415.00
2023-05-09T02:57:24.204Z,95413.00
2023-05-09T02:58:23.674Z,95415.00
2023-05-09T02:59:23.677Z,95415.00
2023-05-09T03:00:23.740Z,95415.00
2023-05-09T03:01:23.737Z,95415.00
2023-05-09T03:02:23.840Z,95415.00
2023-05-09T03:03:23.711Z,95413.00
2023-05-09T03:04:23.664Z,95413.00
2023-05-09T03:05:23.638Z,95413.00
2023-05-09T03:06:23.670Z,95413.00
2023-05-09T03:07:23.741Z,95413.00
2023-05-09T03:08:23.751Z,95411.00
2023-05-09T03:09:23.819Z,95409.00
2023-05-09T03:10:23.863Z,95411.00
2023-05-09T03:11:23.928Z,95411.00
2023-05-09T03:12:24.015Z,95407.00
2023-05-09T03:13:24.119Z,95411.00
2023-05-09T03:14:24.112Z,95409.00
2023-05-09T03:15:24.152Z,95409.00
2023-05-09T03:16:24.339Z,95409.00
2023-05-09T03:17:24.271Z,95405.00
2023-05-09T03:18:24.307Z,95407.00
2023-05-09T03:19:24.369Z,95403.00
2023-05-09T03:20:24.412Z,95405.00
2023-05-09T03:21:24.463Z,95405.00
2023-05-09T03:22:24.525Z,95405.00
2023-05-09T03:23:24.631Z,95405.00
2023-05-09T03:24:24.609Z,95405.00
2023-05-09T03:25:24.634Z,95405.00
2023-05-09T03:26:24.697Z,95405.00
2023-05-09T03:27:25.209Z,95405.00
2023-05-09T03:28:24.801Z,95405.00
2023-05-09T03:29:24.859Z,95405.00
2023-05-09T03:30:24.939Z,95407.00
2023-05-09T03:31:25.039Z,95405.00
2023-05-09T03:32:25.168Z,95405.00
2023-05-09T03:33:25.111Z,95405.00
2023-05-09T03:34:25.156Z,95407.00
2023-05-09T03:35:25.193Z,95405.00
2023-05-09T03:36:25.279Z,95402.00
2023-05-09T03:37:27.107Z,95405.00
2023-05-09T03:38:25.355Z,95405.00
2023-05-09T03:39:25.441Z,95405.00
2023-05-09T03:40:25.472Z,95405.00
2023-05-09T03:41:25.542Z,95403.00
2023-05-09T03:42:25.567Z,95403.00
2023-05-09T03:43:25.645Z,95403.00
2023-05-09T03:44:25.694Z,95403.00
2023-05-09T03:45:25.724Z,95402.00
2023-05-09T03:46:25.843Z,95400.00
2023-05-09T03:47:25.813Z,95400.00
2023-05-09T03:48:25.961Z,95400.00
2023-05-09T03:49:25.942Z,95398.00
2023-05-09T03:50:25.989Z,95400.00
2023-05-09T03:51:26.094Z,95400.00
2023-05-09T03:52:26.711Z,95398.00
2023-05-09T03:53:26.133Z,95400.00
2023-05-09T03:54:26.217Z,95402.00
2023-05-09T03:55:26.240Z,95402.00
2023-05-09T03:56:26.318Z,95402.00
2023-05-09T03:57:26.352Z,95402.00
2023-05-09T03:58:26.423Z,95402.00
2023-05-09T03:59:26.430Z,95402.00
2023-05-09T04:00:26.458Z,95403.00
2023-05-09T04:01:26.498Z,95402.00
2023-05-09T04:02:26.565Z,95400.00
2023-05-09T04:03:26.668Z,95400.00
2023-05-09T04:04:26.723Z,95398.00
2023-05-09T04:05:26.674Z,95398.00
2023-05-09T04:06:26.710Z,95400.00
2023-05-09T04:07:27.227Z,95400.00
2023-05-09T04:08:26.795Z,95402.00
2023-05-09T04:09:26.828Z,95400.00
2023-05-09T04:10:26.873Z,95402.00
2023-05-09T04:11:26.916Z,95402.00
2023-05-09T04:12:26.955Z,95402.00
2023-05-09T04:13:27.025Z,95403.00
2023-05-09T04:14:27.052Z,95403.00
2023-05-09T04:15:27.111Z,95403.00
2023-05-09T04:16:27.180Z,95405.00
2023-05-09T04:17:27.291Z,95400.00
2023-05-09T04:18:27.246Z,95403.00
2023-05-09T04:19:27.293Z,95405.00
2023-05-09T04:20:27.470Z,95402.00
2023-05-09T04:21:27.377Z,95403.00
2023-05-09T04:22:27.449Z,95402.00
2023-05-09T04:23:27.497Z,95400.00
2023-05-09T04:24:27.558Z,95398.00
2023-05-09T04:25:27.589Z,95403.00
2023-05-09T04:26:27.643Z,95405.00
2023-05-09T04:27:27.728Z,95403.00
2023-05-09T04:28:27.718Z,95407.00
2023-05-09T04:29:27.766Z,95405.00
2023-05-09T04:30:27.834Z,95407.00
2023-05-09T04:31:27.951Z,95405.00
2023-05-09T04:32:27.942Z,95407.00
2023-05-09T04:33:27.975Z,95407.00
2023-05-09T04:34:28.043Z,95409.00
2023-05-09T04:35:28.082Z,95407.00
2023-05-09T04:36:28.207Z,95407.00
2023-05-09T04:37:28.277Z,95409.00
2023-05-09T04:38:28.242Z,95407.00
2023-05-09T04:39:28.269Z,95407.00
2023-05-09T04:40:28.337Z,95405.00
2023-05-09T04:41:28.347Z,95405.00
2023-05-09T04:42:28.751Z,95403.00
2023-05-09T04:43:28.387Z,95403.00
2023-05-09T04:44:28.355Z,95405.00
2023-05-09T04:45:28.379Z,95405.00
2023-05-09T04:46:28.373Z,95405.00
2023-05-09T04:47:28.807Z,95403.00
2023-05-09T04:48:28.373Z,95403.00
2023-05-09T04:49:28.376Z,95403.00
2023-05-09T04:50:28.389Z,95402.00
2023-05-09T04:51:28.353Z,95402.00
2023-05-09T04:52:28.582Z,95402.00
2023-05-09T04:53:28.375Z,95400.00
2023-05-09T04:54:28.394Z,95400.00
2023-05-09T04:55:28.412Z,95400.00
2023-05-09T04:56:28.385Z,95402.00
2023-05-09T04:57:28.395Z,95400.00
2023-05-09T04:58:28.405Z,95403.00
2023-05-09T04:59:28.377Z,95398.00
2023-05-09T05:00:28.423Z,95400.00
2023-05-09T05:01:28.457Z,95402.00
2023-05-09T05:02:28.796Z,95402.00
2023-05-09T05:03:28.446Z,95400.00
2023-05-09T05:04:28.470Z,95400.00
2023-05-09T05:05:28.686Z,95402.00
2023-05-09T05:06:28.410Z,95402.00
2023-05-09T05:07:28.430Z,95400.00
2023-05-09T05:08:28.506Z,95400.00
2023-05-09T05:09:28.405Z,95400.00
2023-05-09T05:10:28.433Z,95398.00
2023-05-09T05:11:28.382Z,95398.00
2023-05-09T05:12:28.398Z,95398.00
2023-05-09T05:13:28.430Z,95396.00
2023-05-09T05:14:28.384Z,95396.00
2023-05-09T05:15:28.352Z,95396.00
2023-05-09T05:16:28.410Z,95396.00
2023-05-09T05:17:28.410Z,95396.00
2023-05-09T05:18:28.383Z,95394.00
2023-05-09T05:19:28.357Z,95392.00
2023-05-09T05:20:28.372Z,95394.00
2023-05-09T05:21:28.330Z,95396.00
2023-05-09T05:22:29.016Z,95396.00
2023-05-09T05:23:28.347Z,95396.00
2023-05-09T05:24:28.461Z,95398.00
2023-05-09T05:25:28.368Z,95396.00
2023-05-09T05:26:28.372Z,95396.00
2023-05-09T05:27:28.362Z,95396.00
2023-05-09T05:28:28.409Z,95398.00
2023-05-09T05:29:28.360Z,95398.00
2023-05-09T05:30:28.349Z,95396.00
2023-05-09T05:31:28.392Z,95396.00
2023-05-09T05:32:28.393Z,95398.00
2023-05-09T05:33:28.336Z,95398.00
2023-05-09T05:34:28.356Z,95400.00
2023-05-09T05:35:28.353Z,95400.00
2023-05-09T05:36:28.365Z,95402.00
2023-05-09T05:37:28.802Z,95402.00
2023-05-09T05:38:28.340Z,95402.00
2023-05-09T05:39:28.344Z,95402.00
2023-05-09T05:40:28.439Z,95402.00
2023-05-09T05:41:28.332Z,95402.00
2023-05-09T05:42:28.382Z,95405.00
2023-05-09T05:43:28.335Z,95403.00
2023-05-09T05:44:28.346Z,95403.00
2023-05-09T05:45:28.424Z,95403.00
2023-05-09T05:46:28.382Z,95400.00
2023-05-09T05:47:28.370Z,95402.00
2023-05-09T05:48:28.373Z,95402.00
2023-05-09T05:49:28.376Z,95398.00
2023-05-09T05:50:28.393Z,95398.00
2023-05-09T05:51:28.353Z,95398.00
2023-05-09T05:52:28.362Z,95396.00
2023-05-09T05:53:29.817Z,95396.00
2023-05-09T05:54:28.418Z,95400.00
2023-05-09T05:55:28.456Z,95396.00
2023-05-09T05:56:28.680Z,95396.00
2023-05-09T05:57:28.548Z,95398.00
2023-05-09T05:58:28.653Z,95396.00
2023-05-09T05:59:28.675Z,95396.00
2023-05-09T06:00:28.726Z,95398.00
2023-05-09T06:01:28.789Z,95394.00
2023-05-09T06:02:28.889Z,95394.00
2023-05-09T06:03:29.388Z,95394.00
2023-05-09T06:04:28.828Z,95392.00
2023-05-09T06:05:28.835Z,95388.00
2023-05-09T06:06:28.867Z,95388.00
2023-05-09T06:07:28.852Z,95388.00
2023-05-09T06:08:29.298Z,95386.00
2023-05-09T06:09:28.886Z,95384.00
2023-05-09T06:10:28.942Z,95388.00
2023-05-09T06:11:28.911Z,95386.00
2023-05-09T06:12:29.014Z,95386.00
2023-05-09T06:13:29.348Z,95384.00
2023-05-09T06:14:29.017Z,95386.00
2023-05-09T06:15:28.904Z,95384.00
2023-05-09T06:16:28.950Z,95386.00
2023-05-09T06:17:28.952Z,95384.00
2023-05-09T06:18:28.948Z,95384.00
2023-05-09T06:19:28.914Z,95384.00
2023-05-09T06:20:28.968Z,95384.00
2023-05-09T06:21:28.969Z,95386.00
2023-05-09T06:22:29.013Z,95386.00
2023-05-09T06:23:29.098Z,95384.00
2023-05-09T06:24:35.561Z,95384.00
2023-05-09T06:25:30.139Z,95386.00
2023-05-09T06:26:29.148Z,95388.00
2023-05-09T06:27:29.167Z,95388.00
2023-05-09T06:28:29.195Z,95386.00
2023-05-09T06:29:29.090Z,95390.00
2023-05-09T06:30:29.242Z,95388.00
2023-05-09T06:31:29.151Z,95384.00
2023-05-09T06:32:29.141Z,95382.00
2023-05-09T06:33:29.094Z,95380.00
2023-05-09T06:34:29.073Z,95376.00
2023-05-09T06:35:29.068Z,95376.00
2023-05-09T06:36:29.157Z,95374.00
2023-05-09T06:37:29.161Z,95374.00
2023-05-09T06:38:29.296Z,95370.00
2023-05-09T06:39:29.251Z,95376.00
2023-05-09T06:40:29.321Z,95378.00
2023-05-09T06:41:29.323Z,95378.00
2023-05-09T06:42:29.350Z,95380.00
2023-05-09T06:43:29.849Z,95376.00
2023-05-09T06:44:29.433Z,95376.00
2023-05-09T06:45:29.526Z,95376.00
2023-05-09T06:46:29.520Z,95376.00
2023-05-09T06:47:29.596Z,95370.00
2023-05-09T06:48:29.834Z,95370.00
2023-05-09T06:49:29.576Z,95372.00
2023-05-09T06:50:32.687Z,95370.00
2023-05-09T06:51:29.600Z,95372.00
2023-05-09T06:52:29.568Z,95374.00
2023-05-09T06:53:29.613Z,95374.00
2023-05-09T06:54:29.572Z,95374.00
2023-05-09T06:55:29.578Z,95362.00
2023-05-09T06:56:29.563Z,95370.00
2023-05-09T06:57:29.561Z,95368.00
2023-05-09T06:58:29.537Z,95364.00
2023-05-09T06:59:29.548Z,95366.00
2023-05-09T07:00:29.618Z,95368.00
2023-05-09T07:01:29.590Z,95366.00
2023-05-09T07:02:29.521Z,95366.00
2023-05-09T07:03:29.527Z,95368.00
2023-05-09T07:04:29.539Z,95366.00
2023-05-09T07:05:29.585Z,95366.00
2023-05-09T07:06:29.509Z,95366.00
2023-05-09T07:07:29.468Z,95364.00
2023-05-09T07:08:29.498Z,95364.00
2023-05-09T07:09:29.472Z,95364.00
2023-05-09T07:10:29.451Z,95364.00
2023-05-09T07:11:29.467Z,95366.00
2023-05-09T07:12:29.431Z,95362.00
2023-05-09T07:13:29.452Z,95362.00
2023-05-09T07:14:29.454Z,95364.00
2023-05-09T07:15:40.417Z,95362.00
2023-05-09T07:16:30.610Z,95358.00
2023-05-09T07:17:29.433Z,95360.00
2023-05-09T07:18:29.884Z,95358.00
2023-05-09T07:19:29.435Z,95358.00
2023-05-09T07:20:29.389Z,95355.00
2023-05-09T07:21:29.398Z,95358.00
2023-05-09T07:22:31.511Z,95353.00
2023-05-09T07:23:29.387Z,95351.00
2023-05-09T07:24:29.338Z,95345.00
2023-05-09T07:25:29.354Z,95347.00
2023-05-09T07:26:29.348Z,95343.00
2023-05-09T07:27:29.316Z,95341.00
2023-05-09T07:28:29.321Z,95343.00
2023-05-09T07:29:29.311Z,95345.00
2023-05-09T07:30:29.334Z,95345.00
2023-05-09T07:31:29.375Z,95345.00
2023-05-09T07:32:29.410Z,95345.00
2023-05-09T07:33:29.333Z,95343.00
2023-05-09T07:34:29.288Z,95343.00
2023-05-09T07:35:29.299Z,95343.00
2023-05-09T07:36:29.260Z,95341.00
2023-05-09T07:37:29.259Z,95341.00
2023-05-09T07:38:29.356Z,95339.00
2023-05-09T07:39:29.246Z,95339.00
2023-05-09T07:40:29.236Z,95339.00
2023-05-09T07:41:29.849Z,95335.00
2023-05-09T07:42:29.237Z,95337.00
2023-05-09T07:43:29.201Z,95333.00
2023-05-09T07:44:29.212Z,95335.00
2023-05-09T07:45:29.183Z,95331.00
2023-05-09T07:46:29.249Z,95333.00
2023-05-09T07:47:29.210Z,95331.00
2023-05-09T07:48:29.424Z,95329.00
2023-05-09T07:49:29.152Z,95327.00
2023-05-09T07:50:29.156Z,95325.00
2023-05-09T07:51:29.166Z,95315.00
2023-05-09T07:52:29.146Z,95317.00
2023-05-09T07:53:29.131Z,95317.00
2023-05-09T07:54:29.124Z,95315.00
2023-05-09T07:55:29.110Z,95311.00
2023-05-09T07:56:29.108Z,95311.00
2023-05-09T07:57:29.088Z,95313.00
2023-05-09T07:58:29.109Z,95311.00
2023-05-09T07:59:29.077Z,95311.00
2023-05-09T08:00:29.074Z,95311.00
2023-05-09T08:01:29.099Z,95311.00
2023-05-09T08:02:29.162Z,95309.00
2023-05-09T08:03:29.496Z,95306.00
2023-05-09T08:04:29.272Z,95308.00
2023-05-09T08:05:29.057Z,95304.00
2023-05-09T08:06:29.034Z,95302.00
2023-05-09T08:07:29.042Z,95298.00
2023-05-09T08:08:29.350Z,95302.00
2023-05-09T08:09:29.072Z,95296.00
2023-05-09T08:10:29.104Z,95294.00
2023-05-09T08:11:29.114Z,95290.00
2023-05-09T08:12:29.152Z,95290.00
2023-05-09T08:13:29.284Z,95290.00
2023-05-09T08:14:29.265Z,95288.00
2023-05-09T08:15:29.317Z,95292.00
2023-05-09T08:16:29.494Z,95284.00
2023-05-09T08:17:29.494Z,95286.00
2023-05-09T08:18:29.481Z,95282.00
2023-05-09T08:19:29.558Z,95274.00
2023-05-09T08:20:29.685Z,95272.00
2023-05-09T08:21:29.650Z,95272.00
2023-05-09T08:22:29.699Z,95270.00
2023-05-09T08:23:29.778Z,95261.00
2023-05-09T08:24:29.825Z,95264.00
2023-05-09T08:25:29.870Z,95264.00
2023-05-09T08:26:29.891Z,95262.00
2023-05-09T08:27:29.963Z,95261.00
2023-05-09T08:28:30.371Z,95257.00
2023-05-09T08:29:30.059Z,95257.00
2023-05-09T08:30:30.904Z,95257.00
2023-05-09T08:31:30.195Z,95257.00
2023-05-09T08:32:30.159Z,95253.00
2023-05-09T08:33:30.127Z,95255.00
2023-05-09T08:34:30.161Z,95253.00
2023-05-09T08:35:30.165Z,95251.00
2023-05-09T08:36:30.263Z,95243.00
2023-05-09T08:37:30.179Z,95243.00
2023-05-09T08:38:30.376Z,95239.00
2023-05-09T08:39:30.194Z,95233.00
2023-05-09T08:40:30.196Z,95231.00
2023-05-09T08:41:30.196Z,95229.00
2023-05-09T08:42:30.232Z,95229.00
2023-05-09T08:43:30.216Z,95229.00
2023-05-09T08:44:30.218Z,95227.00
2023-05-09T08:45:30.226Z,95229.00
2023-05-09T08:46:30.233Z,95229.00
2023-05-09T08:47:30.240Z,95229.00
2023-05-09T08:48:30.184Z,95227.00
2023-05-09T08:49:30.402Z,95227.00
2023-05-09T08:50:30.176Z,95227.00
2023-05-09T08:51:30.194Z,95221.00
2023-05-09T08:52:30.264Z,95221.00
2023-05-09T08:53:30.242Z,95219.00
2023-05-09T08:54:30.418Z,95217.00
2023-05-09T08:55:30.165Z,95215.00
2023-05-09T08:56:30.156Z,95215.00
2023-05-09T08:57:30.179Z,95214.00
2023-05-09T08:58:30.175Z,95217.00
2023-05-09T08:59:30.394Z,95217.00
2023-05-09T09:00:30.149Z,95217.00
2023-05-09T09:01:30.164Z,95214.00
2023-05-09T09:02:30.229Z,95212.00
2023-05-09T09:03:30.127Z,95210.00
2023-05-09T09:04:30.433Z,95204.00
2023-05-09T09:06:30.153Z,95198.00
2023-05-09T09:07:31.264Z,95200.00
2023-05-09T09:08:30.244Z,95196.00
2023-05-09T09:09:30.398Z,95190.00
2023-05-09T09:10:30.113Z,95188.00
2023-05-09T09:11:30.124Z,95186.00
2023-05-09T09:12:30.122Z,95186.00
2023-05-09T09:13:30.320Z,95184.00
2023-05-09T09:14:30.397Z,95184.00
2023-05-09T09:15:30.088Z,95182.00
2023-05-09T09:16:30.160Z,95182.00
2023-05-09T09:17:30.110Z,95178.00
2023-05-09T09:18:30.061Z,95176.00
2023-05-09T09:19:30.084Z,95174.00
2023-05-09T09:20:30.050Z,95172.00
2023-05-09T09:21:30.027Z,95168.00
2023-05-09T09:22:30.029Z,95159.00
2023-05-09T09:23:30.046Z,95159.00
2023-05-09T09:24:30.136Z,95159.00
2023-05-09T09:25:30.119Z,95159.00
2023-05-09T09:26:30.215Z,95159.00
2023-05-09T09:27:30.273Z,95155.00
2023-05-09T09:28:30.294Z,95157.00
2023-05-09T09:29:30.414Z,95155.00
2023-05-09T09:30:30.348Z,95155.00
2023-05-09T09:31:30.474Z,95149.00
2023-05-09T09:32:30.457Z,95153.00
2023-05-09T09:33:30.413Z,95149.00
2023-05-09T09:34:30.910Z,95143.00
2023-05-09T09:35:30.441Z,95143.00
2023-05-09T09:36:30.420Z,95139.00
2023-05-09T09:37:30.467Z,95137.00
2023-05-09T09:38:30.470Z,95137.00
2023-05-09T09:39:30.926Z,95133.00
2023-05-09T09:40:30.655Z,95133.00
2023-05-09T09:41:30.632Z,95129.00
2023-05-09T09:42:30.682Z,95125.00
2023-05-09T09:43:30.765Z,95123.00
2023-05-09T09:44:30.949Z,95121.00
2023-05-09T09:45:30.863Z,95115.00
2023-05-09T09:46:30.979Z,95114.00
2023-05-09T09:47:31.067Z,95112.00
2023-05-09T09:48:31.039Z,95112.00
2023-05-09T09:49:31.426Z,95108.00
2023-05-09T09:50:31.104Z,95106.00
2023-05-09T09:51:31.193Z,95106.00
2023-05-09T09:52:31.219Z,95102.00
2023-05-09T09:53:31.281Z,95102.00
2023-05-09T09:54:31.437Z,95096.00
2023-05-09T09:55:31.440Z,95098.00
2023-05-09T09:56:31.587Z,95094.00
2023-05-09T09:57:31.571Z,95088.00
2023-05-09T09:58:31.616Z,95092.00
2023-05-09T09:59:31.675Z,95088.00
2023-05-09T10:00:31.771Z,95084.00
2023-05-09T10:01:31.837Z,95088.00
2023-05-09T10:02:32.036Z,95082.00
2023-05-09T10:03:31.910Z,95078.00
2023-05-09T10:04:31.961Z,95074.00
2023-05-09T10:05:31.992Z,95078.00
2023-05-09T10:06:32.063Z,95072.00
2023-05-09T10:07:32.103Z,95072.00
2023-05-09T10:08:32.132Z,95068.00
2023-05-09T10:09:32.428Z,95067.00
2023-05-09T10:10:32.223Z,95068.00
2023-05-09T10:11:32.264Z,95067.00
2023-05-09T10:12:32.423Z,95065.00
2023-05-09T10:13:32.306Z,95065.00
2023-05-09T10:14:34.329Z,95059.00
2023-05-09T10:15:41.273Z,95057.00
2023-05-09T10:16:43.787Z,95059.00
2023-05-09T10:17:33.702Z,95057.00
2023-05-09T10:18:32.702Z,95051.00
2023-05-09T10:19:32.992Z,95051.00
2023-05-09T10:20:32.522Z,95047.00
2023-05-09T10:21:32.587Z,95045.00
2023-05-09T10:22:32.509Z,95045.00
2023-05-09T10:23:32.516Z,95041.00
2023-05-09T10:24:32.519Z,95041.00
2023-05-09T10:25:32.528Z,95037.00
2023-05-09T10:26:32.551Z,95039.00
2023-05-09T10:27:32.500Z,95031.00
2023-05-09T10:28:32.575Z,95029.00
2023-05-09T10:29:32.466Z,95029.00
2023-05-09T10:30:34.061Z,95029.00
2023-05-09T10:31:32.510Z,95025.00
2023-05-09T10:32:32.526Z,95021.00
2023-05-09T10:33:32.434Z,95021.00
2023-05-09T10:34:32.453Z,95021.00
2023-05-09T10:35:32.417Z,95020.00
2023-05-09T10:36:32.393Z,95020.00
2023-05-09T10:37:33.514Z,95012.00
2023-05-09T10:38:32.407Z,95010.00
2023-05-09T10:39:32.389Z,95010.00
2023-05-09T10:40:32.383Z,95010.00
2023-05-09T10:41:32.364Z,95006.00
2023-05-09T10:42:32.366Z,95002.00
2023-05-09T10:43:32.601Z,95000.00
2023-05-09T10:44:32.554Z,94996.00
2023-05-09T10:45:32.354Z,94996.00
2023-05-09T10:46:32.373Z,94992.00
2023-05-09T10:47:32.459Z,94992.00
2023-05-09T10:48:32.344Z,94990.00
2023-05-09T10:49:33.056Z,94990.00
2023-05-09T10:50:32.313Z,94984.00
2023-05-09T10:51:32.312Z,94984.00
2023-05-09T10:52:32.294Z,94982.00
2023-05-09T10:53:32.308Z,94980.00
2023-05-09T10:54:32.263Z,94976.00
2023-05-09T10:55:32.289Z,94971.00
2023-05-09T10:56:32.317Z,94969.00
2023-05-09T10:57:32.289Z,94967.00
2023-05-09T10:58:32.273Z,94965.00
2023-05-09T10:59:32.439Z,94963.00
2023-05-09T11:00:32.330Z,94961.00
2023-05-09T11:01:32.238Z,94957.00
2023-05-09T11:02:32.305Z,94955.00
2023-05-09T11:03:32.355Z,94951.00
2023-05-09T11:04:32.470Z,94947.00
2023-05-09T11:05:32.330Z,94943.00
2023-05-09T11:06:32.316Z,94941.00
2023-05-09T11:07:32.408Z,94941.00
2023-05-09T11:08:32.376Z,94935.00
2023-05-09T11:09:32.422Z,94931.00
2023-05-09T11:10:32.449Z,94935.00
2023-05-09T11:11:32.486Z,94929.00
2023-05-09T11:12:32.490Z,94927.00
2023-05-09T11:13:32.563Z,94926.00
2023-05-09T11:14:32.976Z,94924.00
2023-05-09T11:15:32.572Z,94924.00
2023-05-09T11:16:32.754Z,94920.00
2023-05-09T11:17:32.665Z,94920.00
2023-05-09T11:18:32.701Z,94920.00
2023-05-09T11:19:32.657Z,94918.00
2023-05-09T11:20:32.719Z,94914.00
2023-05-09T11:21:32.759Z,94912.00
2023-05-09T11:22:32.966Z,94904.00
2023-05-09T11:23:32.829Z,94902.00
2023-05-09T11:24:32.879Z,94898.00
2023-05-09T11:25:32.867Z,94898.00
2023-05-09T11:26:32.939Z,94896.00
2023-05-09T11:27:32.933Z,94894.00
2023-05-09T11:28:32.982Z,94894.00
2023-05-09T11:29:33.504Z,94890.00
2023-05-09T11:30:33.025Z,94888.00
2023-05-09T11:31:33.089Z,94886.00
2023-05-09T11:32:33.228Z,94884.00
2023-05-09T11:33:33.121Z,94886.00
2023-05-09T11:34:33.187Z,94884.00
2023-05-09T11:35:33.254Z,94877.00
2023-05-09T11:36:33.370Z,94879.00
2023-05-09T11:37:33.309Z,94881.00
2023-05-09T11:38:33.335Z,94875.00
2023-05-09T11:39:33.396Z,94877.00
2023-05-09T11:40:33.420Z,94873.00
2023-05-09T11:41:33.479Z,94871.00
2023-05-09T11:42:33.493Z,94867.00
2023-05-09T11:43:33.528Z,94857.00
2023-05-09T11:44:33.629Z,94861.00
2023-05-09T11:45:33.715Z,94859.00